Private Wetterstation Sandau
Wetterdaten: Samstag, 11.02.2012
Datum Zeit Temp. A. Feuchte A. Luftdruck Regen Wind Richtung Richtung Taupunkt Windchill
11.02.2012 00:02 -6,2 C 79 % 1040,6 hPa 0,0 l/m 0,0 km/h (0 Bft) W-NW 292 -9,2 C -6,2 C
11.02.2012 00:07 -6,2 C 79 % 1040,5 hPa 0,0 l/m 3,2 km/h (1 Bft) W-NW 292 -9,2 C -6,2 C
11.02.2012 00:12 -6,2 C 79 % 1040,5 hPa 0,0 l/m 0,0 km/h (0 Bft) W-NW 292 -9,2 C -6,2 C
11.02.2012 00:17 -6,2 C 79 % 1040,7 hPa 0,0 l/m 1,4 km/h (1 Bft) W-NW 292 -9,2 C -6,2 C
11.02.2012 00:22 -6,2 C 79 % 1040,7 hPa 0,0 l/m 0,0 km/h (0 Bft) W-NW 292 -9,2 C -6,2 C
11.02.2012 00:27 -6,2 C 79 % 1040,7 hPa 0,0 l/m 1,4 km/h (1 Bft) W-NW 292 -9,2 C -6,2 C
11.02.2012 00:32 -6,2 C 80 % 1040,5 hPa 0,0 l/m 0,0 km/h (0 Bft) W-NW 292 -9,1 C -6,2 C
11.02.2012 00:37 -6,2 C 80 % 1040,6 hPa 0,0 l/m 1,1 km/h (1 Bft) W-NW 292 -9,1 C -6,2 C
11.02.2012 00:42 -6,2 C 80 % 1040,5 hPa 0,0 l/m 0,0 km/h (0 Bft) W-NW 292 -9,1 C -6,2 C
11.02.2012 00:47 -6,2 C 80 % 1040,5 hPa 0,0 l/m 0,0 km/h (0 Bft) W-NW 292 -9,1 C -6,2 C
11.02.2012 00:52 -6,2 C 80 % 1040,5 hPa 0,0 l/m 0,0 km/h (0 Bft) W-NW 292 -9,1 C -6,2 C
11.02.2012 00:57 -6,2 C 80 % 1040,5 hPa 0,0 l/m 0,0 km/h (0 Bft) W-NW 292 -9,1 C -6,2 C
11.02.2012 01:02 -6,2 C 80 % 1040,5 hPa 0,0 l/m 0,0 km/h (0 Bft) W-NW 292 -9,1 C -6,2 C
11.02.2012 01:07 -6,4 C 81 % 1040,4 hPa 0,0 l/m 0,0 km/h (0 Bft) W-NW 292 -9,1 C -6,4 C
11.02.2012 01:12 -6,4 C 81 % 1040,3 hPa 0,0 l/m 1,4 km/h (1 Bft) W-NW 292 -9,1 C -6,4 C
11.02.2012 01:17 -6,4 C 81 % 1040,2 hPa 0,0 l/m 1,4 km/h (1 Bft) W-NW 292 -9,1 C -6,4 C
11.02.2012 01:22 -6,4 C 81 % 1040,1 hPa 0,0 l/m 1,4 km/h (1 Bft) W-NW 292 -9,1 C -6,4 C
11.02.2012 01:27 -6,4 C 81 % 1040,1 hPa 0,0 l/m 2,5 km/h (1 Bft) W-NW 292 -9,1 C -6,4 C
11.02.2012 01:32 -6,4 C 81 % 1040,0 hPa 0,0 l/m 2,5 km/h (1 Bft) W-NW 292 -9,1 C -6,4 C
11.02.2012 01:37 -6,4 C 82 % 1040,0 hPa 0,0 l/m 3,6 km/h (1 Bft) N-NO 22 -9,0 C -6,4 C
11.02.2012 01:42 -6,4 C 82 % 1039,8 hPa 0,0 l/m 2,2 km/h (1 Bft) N-NO 22 -9,0 C -6,4 C
11.02.2012 01:47 -6,4 C 82 % 1039,8 hPa 0,0 l/m 2,2 km/h (1 Bft) N-NO 22 -9,0 C -6,4 C
11.02.2012 01:52 -6,2 C 82 % 1039,9 hPa 0,0 l/m 0,0 km/h (0 Bft) N-NO 22 -8,8 C -6,2 C
11.02.2012 01:57 -6,2 C 83 % 1039,8 hPa 0,0 l/m 0,0 km/h (0 Bft) N-NO 22 -8,6 C -6,2 C
11.02.2012 02:02 -6,1 C 83 % 1039,9 hPa 0,0 l/m 0,0 km/h (0 Bft) N-NO 22 -8,5 C -6,1 C
11.02.2012 02:07 -5,9 C 83 % 1039,9 hPa 0,0 l/m 1,4 km/h (1 Bft) O-NO 67 -8,3 C -5,9 C
11.02.2012 02:12 -5,8 C 83 % 1039,9 hPa 0,0 l/m 0,0 km/h (0 Bft) O-NO 67 -8,2 C -5,8 C
11.02.2012 02:17 -5,7 C 83 % 1039,8 hPa 0,0 l/m 0,0 km/h (0 Bft) O-NO 67 -8,1 C -5,7 C
11.02.2012 02:22 -5,6 C 83 % 1039,8 hPa 0,0 l/m 0,0 km/h (0 Bft) O-NO 67 -8,0 C -5,6 C
11.02.2012 02:27 -5,6 C 83 % 1039,5 hPa 0,0 l/m 0,0 km/h (0 Bft) O-NO 67 -8,0 C -5,6 C
11.02.2012 02:32 -5,6 C 83 % 1039,4 hPa 0,0 l/m 0,0 km/h (0 Bft) O-NO 67 -8,0 C -5,6 C
11.02.2012 02:37 -5,6 C 82 % 1039,4 hPa 0,0 l/m 0,0 km/h (0 Bft) O-NO 67 -8,2 C -5,6 C
11.02.2012 02:42 -5,6 C 82 % 1039,4 hPa 0,0 l/m 0,0 km/h (0 Bft) O-NO 67 -8,2 C -5,6 C
11.02.2012 02:47 -5,6 C 82 % 1039,3 hPa 0,0 l/m 0,0 km/h (0 Bft) O-NO 67 -8,2 C -5,6 C
11.02.2012 02:52 -5,6 C 82 % 1039,3 hPa 0,0 l/m 0,0 km/h (0 Bft) O-NO 67 -8,2 C -5,6 C
11.02.2012 02:57 -5,5 C 82 % 1039,3 hPa 0,0 l/m 0,0 km/h (0 Bft) O-NO 67 -8,1 C -5,5 C
11.02.2012 03:02 -5,6 C 83 % 1039,2 hPa 0,0 l/m 0,0 km/h (0 Bft) O-NO 67 -8,0 C -5,6 C
11.02.2012 03:07 -5,6 C 83 % 1039,2 hPa 0,0 l/m 0,0 km/h (0 Bft) O-NO 67 -8,0 C -5,6 C
11.02.2012 03:12 -5,5 C 83 % 1039,2 hPa 0,0 l/m 0,0 km/h (0 Bft) O-NO 67 -7,9 C -5,5 C
11.02.2012 03:17 -5,5 C 83 % 1039,3 hPa 0,0 l/m 0,0 km/h (0 Bft) O-NO 67 -7,9 C -5,5 C
11.02.2012 03:22 -5,5 C 83 % 1039,2 hPa 0,0 l/m 0,0 km/h (0 Bft) O-NO 67 -7,9 C -5,5 C
11.02.2012 03:27 -5,5 C 83 % 1039,2 hPa 0,0 l/m 0,0 km/h (0 Bft) O-NO 67 -7,9 C -5,5 C
11.02.2012 03:32 -5,5 C 83 % 1039,2 hPa 0,0 l/m 0,0 km/h (0 Bft) O-NO 67 -7,9 C -5,5 C
11.02.2012 03:37 -5,4 C 83 % 1039,1 hPa 0,0 l/m 0,0 km/h (0 Bft) O-NO 67 -7,8 C -5,4 C
11.02.2012 03:42 -5,4 C 83 % 1039,1 hPa 0,0 l/m 0,0 km/h (0 Bft) O-NO 67 -7,8 C -5,4 C
11.02.2012 03:47 -5,4 C 83 % 1039,1 hPa 0,0 l/m 1,1 km/h (1 Bft) O-NO 67 -7,8 C -5,4 C
11.02.2012 03:52 -5,4 C 83 % 1039,1 hPa 0,0 l/m 0,0 km/h (0 Bft) O-NO 67 -7,8 C -5,4 C
11.02.2012 03:57 -5,3 C 83 % 1038,9 hPa 0,0 l/m 0,0 km/h (0 Bft) O-NO 67 -7,7 C -5,3 C
11.02.2012 04:02 -5,3 C 83 % 1039,0 hPa 0,0 l/m 0,0 km/h (0 Bft) O-NO 67 -7,7 C -5,3 C
11.02.2012 04:07 -5,3 C 83 % 1039,0 hPa 0,0 l/m 0,0 km/h (0 Bft) O-NO 67 -7,7 C -5,3 C
11.02.2012 04:12 -5,3 C 83 % 1038,8 hPa 0,0 l/m 0,0 km/h (0 Bft) O-NO 67 -7,7 C -5,3 C
11.02.2012 04:17 -5,2 C 83 % 1038,9 hPa 0,0 l/m 0,0 km/h (0 Bft) O-NO 67 -7,6 C -5,2 C
11.02.2012 04:22 -5,2 C 83 % 1038,8 hPa 0,0 l/m 0,0 km/h (0 Bft) O-NO 67 -7,6 C -5,2 C
11.02.2012 04:27 -5,2 C 83 % 1038,7 hPa 0,0 l/m 0,0 km/h (0 Bft) O-NO 67 -7,6 C -5,2 C
11.02.2012 04:32 -5,2 C 83 % 1038,8 hPa 0,0 l/m 0,0 km/h (0 Bft) O-NO 67 -7,6 C -5,2 C
11.02.2012 04:37 -5,2 C 83 % 1038,7 hPa 0,0 l/m 0,0 km/h (0 Bft) O-NO 67 -7,6 C -5,2 C
11.02.2012 04:42 -5,2 C 82 % 1038,7 hPa 0,0 l/m 0,0 km/h (0 Bft) O-NO 67 -7,8 C -5,2 C
11.02.2012 04:47 -5,2 C 82 % 1038,7 hPa 0,0 l/m 0,0 km/h (0 Bft) O-NO 67 -7,8 C -5,2 C
11.02.2012 04:52 -5,2 C 82 % 1038,6 hPa 0,0 l/m 0,0 km/h (0 Bft) O-NO 67 -7,8 C -5,2 C
11.02.2012 04:57 -5,2 C 82 % 1038,7 hPa 0,0 l/m 0,0 km/h (0 Bft) O-NO 67 -7,8 C -5,2 C
11.02.2012 05:02 -5,3 C 82 % 1038,7 hPa 0,0 l/m 0,0 km/h (0 Bft) O-NO 67 -7,9 C -5,3 C
11.02.2012 05:07 -5,3 C 82 % 1038,6 hPa 0,0 l/m 0,0 km/h (0 Bft) O-NO 67 -7,9 C -5,3 C
11.02.2012 05:12 -5,4 C 82 % 1038,7 hPa 0,0 l/m 0,0 km/h (0 Bft) O-NO 67 -8,0 C -5,4 C
11.02.2012 05:17 -5,4 C 82 % 1038,6 hPa 0,0 l/m 0,0 km/h (0 Bft) O-NO 67 -8,0 C -5,4 C
11.02.2012 05:22 -5,4 C 82 % 1038,6 hPa 0,0 l/m 0,0 km/h (0 Bft) O-NO 67 -8,0 C -5,4 C
11.02.2012 05:27 -5,5 C 82 % 1038,5 hPa 0,0 l/m 0,0 km/h (0 Bft) O-NO 67 -8,1 C -5,5 C
11.02.2012 05:32 -5,6 C 82 % 1038,5 hPa 0,0 l/m 0,0 km/h (0 Bft) O-NO 67 -8,2 C -5,6 C
11.02.2012 05:37 -5,6 C 82 % 1038,5 hPa 0,0 l/m 0,0 km/h (0 Bft) O-NO 67 -8,2 C -5,6 C
11.02.2012 05:42 -5,7 C 82 % 1038,5 hPa 0,0 l/m 0,0 km/h (0 Bft) O-NO 67 -8,3 C -5,7 C
11.02.2012 05:47 -5,7 C 82 % 1038,5 hPa 0,0 l/m 0,0 km/h (0 Bft) O-NO 67 -8,3 C -5,7 C
11.02.2012 05:52 -5,7 C 82 % 1038,4 hPa 0,0 l/m 0,0 km/h (0 Bft) O-NO 67 -8,3 C -5,7 C
11.02.2012 05:57 -5,7 C 82 % 1038,4 hPa 0,0 l/m 0,0 km/h (0 Bft) O-NO 67 -8,3 C -5,7 C
11.02.2012 06:02 -5,8 C 82 % 1038,4 hPa 0,0 l/m 2,5 km/h (1 Bft) O-NO 67 -8,4 C -5,8 C
11.02.2012 06:07 -5,9 C 82 % 1038,3 hPa 0,0 l/m 0,0 km/h (0 Bft) O-NO 67 -8,5 C -5,9 C
11.02.2012 06:12 -5,9 C 82 % 1038,2 hPa 0,0 l/m 0,0 km/h (0 Bft) O-NO 67 -8,5 C -5,9 C
11.02.2012 06:17 -5,9 C 82 % 1038,2 hPa 0,0 l/m 0,0 km/h (0 Bft) O-NO 67 -8,5 C -5,9 C
11.02.2012 06:22 -5,9 C 82 % 1038,1 hPa 0,0 l/m 0,0 km/h (0 Bft) O-NO 67 -8,5 C -5,9 C
11.02.2012 06:27 -6,0 C 82 % 1038,1 hPa 0,0 l/m 0,0 km/h (0 Bft) O-NO 67 -8,6 C -6,0 C
11.02.2012 06:32 -5,9 C 82 % 1038,0 hPa 0,0 l/m 0,0 km/h (0 Bft) O-NO 67 -8,5 C -5,9 C
11.02.2012 06:37 -5,9 C 82 % 1038,0 hPa 0,0 l/m 0,0 km/h (0 Bft) O-NO 67 -8,5 C -5,9 C
11.02.2012 06:42 -5,9 C 82 % 1038,0 hPa 0,0 l/m 0,0 km/h (0 Bft) O-NO 67 -8,5 C -5,9 C
11.02.2012 06:47 -5,9 C 82 % 1038,0 hPa 0,0 l/m 0,0 km/h (0 Bft) O-NO 67 -8,5 C -5,9 C
11.02.2012 06:52 -5,9 C 81 % 1038,0 hPa 0,0 l/m 0,0 km/h (0 Bft) O-NO 67 -8,6 C -5,9 C
11.02.2012 06:57 -5,9 C 81 % 1038,0 hPa 0,0 l/m 0,0 km/h (0 Bft) O-NO 67 -8,6 C -5,9 C
11.02.2012 07:02 -5,9 C 81 % 1038,0 hPa 0,0 l/m 0,0 km/h (0 Bft) O-NO 67 -8,6 C -5,9 C
11.02.2012 07:07 -6,1 C 81 % 1038,1 hPa 0,0 l/m 0,0 km/h (0 Bft) O-NO 67 -8,8 C -6,1 C
11.02.2012 07:12 -6,2 C 81 % 1038,0 hPa 0,0 l/m 0,0 km/h (0 Bft) O-NO 67 -8,9 C -6,2 C
11.02.2012 07:17 -6,2 C 80 % 1038,1 hPa 0,0 l/m 0,0 km/h (0 Bft) O-NO 67 -9,1 C -6,2 C
11.02.2012 07:22 -6,4 C 80 % 1038,2 hPa 0,0 l/m 0,0 km/h (0 Bft) O-NO 67 -9,3 C -6,4 C
11.02.2012 07:27 -6,7 C 80 % 1038,2 hPa 0,0 l/m 0,0 km/h (0 Bft) O-NO 67 -9,6 C -6,7 C
11.02.2012 07:32 -6,9 C 80 % 1038,3 hPa 0,0 l/m 0,0 km/h (0 Bft) O-NO 67 -9,8 C -6,9 C
11.02.2012 07:37 -6,9 C 80 % 1038,2 hPa 0,0 l/m 0,0 km/h (0 Bft) O-NO 67 -9,8 C -6,9 C
11.02.2012 07:42 -7,1 C 81 % 1038,1 hPa 0,0 l/m 0,0 km/h (0 Bft) O-NO 67 -9,8 C -7,1 C
11.02.2012 07:47 -7,1 C 81 % 1038,3 hPa 0,0 l/m 2,2 km/h (1 Bft) O-NO 67 -9,8 C -7,1 C
11.02.2012 07:52 -7,1 C 81 % 1038,1 hPa 0,0 l/m 2,2 km/h (1 Bft) O-NO 67 -9,8 C -7,1 C
11.02.2012 07:57 -7,1 C 81 % 1038,1 hPa 0,0 l/m 0,0 km/h (0 Bft) O-NO 67 -9,8 C -7,1 C
11.02.2012 08:02 -7,1 C 81 % 1038,3 hPa 0,0 l/m 0,0 km/h (0 Bft) O-NO 67 -9,8 C -7,1 C
11.02.2012 08:07 -7,1 C 82 % 1038,1 hPa 0,0 l/m 2,5 km/h (1 Bft) O-NO 67 -9,6 C -7,1 C
11.02.2012 08:12 -7,1 C 82 % 1038,1 hPa 0,0 l/m 4,0 km/h (1 Bft) O-NO 67 -9,6 C -7,1 C
11.02.2012 08:17 -7,0 C 82 % 1038,1 hPa 0,0 l/m 2,2 km/h (1 Bft) O 90 -9,5 C -7,0 C
11.02.2012 08:22 -6,9 C 82 % 1038,3 hPa 0,0 l/m 3,6 km/h (1 Bft) O 90 -9,4 C -6,9 C
11.02.2012 08:27 -6,9 C 82 % 1038,2 hPa 0,0 l/m 2,2 km/h (1 Bft) O 90 -9,4 C -6,9 C
11.02.2012 08:32 -6,9 C 82 % 1038,3 hPa 0,0 l/m 3,2 km/h (1 Bft) O 90 -9,4 C -6,9 C
11.02.2012 08:37 -6,9 C 82 % 1038,3 hPa 0,0 l/m 1,8 km/h (1 Bft) O-NO 67 -9,4 C -6,9 C
11.02.2012 08:42 -6,9 C 82 % 1038,3 hPa 0,0 l/m 2,5 km/h (1 Bft) O-NO 67 -9,4 C -6,9 C
11.02.2012 08:47 -6,8 C 82 % 1038,3 hPa 0,0 l/m 4,7 km/h (1 Bft) O-SO 112 -9,3 C -9,1 C
11.02.2012 08:52 -6,8 C 82 % 1038,4 hPa 0,0 l/m 9,4 km/h (2 Bft) O-NO 67 -9,3 C -11,2 C
11.02.2012 08:57 -6,7 C 82 % 1038,5 hPa 0,0 l/m 8,3 km/h (2 Bft) O 90 -9,2 C -10,7 C
11.02.2012 09:02 -6,7 C 81 % 1038,4 hPa 0,0 l/m 6,5 km/h (2 Bft) O 90 -9,4 C -10,0 C
11.02.2012 09:07 -6,7 C 81 % 1038,6 hPa 0,0 l/m 5,8 km/h (2 Bft) O-NO 67 -9,4 C -9,6 C
11.02.2012 09:12 -6,7 C 81 % 1038,6 hPa 0,0 l/m 12,6 km/h (3 Bft) O 90 -9,4 C -12,1 C
11.02.2012 09:17 -6,7 C 81 % 1038,5 hPa 0,0 l/m 2,9 km/h (1 Bft) O-NO 67 -9,4 C -6,7 C
11.02.2012 09:22 -6,7 C 80 % 1038,8 hPa 0,0 l/m 8,3 km/h (2 Bft) O-NO 67 -9,6 C -10,7 C
11.02.2012 09:27 -6,7 C 80 % 1038,8 hPa 0,0 l/m 3,2 km/h (1 Bft) O-NO 67 -9,6 C -6,7 C
11.02.2012 09:32 -6,6 C 80 % 1038,9 hPa 0,0 l/m 3,6 km/h (1 Bft) O 90 -9,5 C -6,6 C
11.02.2012 09:37 -6,6 C 79 % 1038,8 hPa 0,0 l/m 3,2 km/h (1 Bft) O-SO 112 -9,6 C -6,6 C
11.02.2012 09:42 -6,5 C 79 % 1038,9 hPa 0,5 l/m 9,4 km/h (2 Bft) O-SO 112 -9,5 C -10,9 C
11.02.2012 09:47 -6,4 C 79 % 1039,0 hPa 0,0 l/m 9,7 km/h (2 Bft) O-NO 67 -9,4 C -10,9 C
11.02.2012 09:52 -6,4 C 79 % 1038,7 hPa 0,0 l/m 5,8 km/h (2 Bft) O 90 -9,4 C -9,3 C
11.02.2012 09:57 -6,5 C 78 % 1038,9 hPa 0,0 l/m 5,0 km/h (1 Bft) O 90 -9,7 C -9,0 C
11.02.2012 10:02 -6,4 C 78 % 1038,9 hPa 0,0 l/m 3,6 km/h (1 Bft) O 90 -9,6 C -6,4 C
11.02.2012 10:07 -6,4 C 78 % 1038,9 hPa 0,0 l/m 5,0 km/h (1 Bft) O-SO 112 -9,6 C -8,8 C
11.02.2012 10:12 -6,4 C 78 % 1038,7 hPa 0,0 l/m 7,2 km/h (2 Bft) O-NO 67 -9,6 C -9,9 C
11.02.2012 10:17 -6,4 C 78 % 1038,7 hPa 0,0 l/m 5,8 km/h (2 Bft) O 90 -9,6 C -9,3 C
11.02.2012 10:22 -6,4 C 78 % 1038,6 hPa 0,0 l/m 3,6 km/h (1 Bft) O 90 -9,6 C -6,4 C
11.02.2012 10:27 -6,4 C 78 % 1038,6 hPa 0,0 l/m 3,2 km/h (1 Bft) O-NO 67 -9,6 C -6,4 C
11.02.2012 10:32 -6,4 C 78 % 1038,7 hPa 0,0 l/m 9,4 km/h (2 Bft) O-SO 112 -9,6 C -10,8 C
11.02.2012 10:37 -6,4 C 77 % 1038,7 hPa 0,0 l/m 6,1 km/h (2 Bft) O-SO 112 -9,7 C -9,4 C
11.02.2012 10:42 -6,2 C 78 % 1038,6 hPa 0,0 l/m 4,7 km/h (1 Bft) O 90 -9,4 C -8,4 C
11.02.2012 10:47 -6,2 C 78 % 1038,6 hPa 0,0 l/m 8,3 km/h (2 Bft) O-NO 67 -9,4 C -10,1 C
11.02.2012 10:52 -6,1 C 77 % 1038,7 hPa 0,0 l/m 4,7 km/h (1 Bft) O 90 -9,5 C -8,3 C
11.02.2012 10:57 -6,1 C 77 % 1038,5 hPa 0,0 l/m 3,2 km/h (1 Bft) O 90 -9,5 C -6,1 C
11.02.2012 11:02 -6,1 C 77 % 1038,7 hPa 0,0 l/m 5,0 km/h (1 Bft) O-SO 112 -9,5 C -8,5 C
11.02.2012 11:07 -5,9 C 77 % 1038,8 hPa 0,0 l/m 3,2 km/h (1 Bft) O 90 -9,3 C -5,9 C
11.02.2012 11:12 -5,8 C 77 % 1038,7 hPa 0,0 l/m 2,5 km/h (1 Bft) O 90 -9,2 C -5,8 C
11.02.2012 11:17 -5,6 C 77 % 1038,6 hPa 0,0 l/m 4,0 km/h (1 Bft) O 90 -9,0 C -5,6 C
11.02.2012 11:22 -5,6 C 76 % 1038,7 hPa 0,0 l/m 5,4 km/h (1 Bft) O-SO 112 -9,1 C -8,2 C
11.02.2012 11:27 -5,7 C 76 % 1038,8 hPa 0,0 l/m 3,2 km/h (1 Bft) O-SO 112 -9,2 C -5,7 C
11.02.2012 11:32 -5,6 C 76 % 1038,8 hPa 0,0 l/m 5,8 km/h (2 Bft) O-SO 112 -9,1 C -8,4 C
11.02.2012 11:37 -5,6 C 76 % 1038,8 hPa 0,0 l/m 2,5 km/h (1 Bft) O-SO 112 -9,1 C -5,6 C
11.02.2012 11:42 -5,7 C 76 % 1038,7 hPa 0,0 l/m 2,5 km/h (1 Bft) O-SO 112 -9,2 C -5,7 C
11.02.2012 11:47 -5,7 C 76 % 1038,7 hPa 0,0 l/m 2,2 km/h (1 Bft) O-SO 112 -9,2 C -5,7 C
11.02.2012 11:52 -5,6 C 76 % 1038,6 hPa 0,0 l/m 4,7 km/h (1 Bft) O-NO 67 -9,1 C -7,8 C
11.02.2012 11:57 -5,5 C 76 % 1038,7 hPa 0,0 l/m 6,5 km/h (2 Bft) O-NO 67 -9,0 C -8,6 C
11.02.2012 12:02 -5,5 C 75 % 1038,7 hPa 0,0 l/m 0,0 km/h (0 Bft) O 90 -9,2 C -5,5 C
11.02.2012 12:07 -5,3 C 75 % 1038,8 hPa 0,0 l/m 3,6 km/h (1 Bft) O-SO 112 -9,0 C -5,3 C
11.02.2012 12:12 -5,2 C 75 % 1038,7 hPa 0,0 l/m 2,5 km/h (1 Bft) O-SO 112 -8,9 C -5,2 C
11.02.2012 12:17 -5,1 C 75 % 1038,5 hPa 0,0 l/m 0,0 km/h (0 Bft) O-SO 112 -8,8 C -5,1 C
11.02.2012 12:22 -5,0 C 74 % 1038,6 hPa 0,0 l/m 1,8 km/h (1 Bft) O 90 -8,9 C -5,0 C
11.02.2012 12:27 -4,9 C 74 % 1038,4 hPa 0,0 l/m 7,9 km/h (2 Bft) O-SO 112 -8,8 C -8,5 C
11.02.2012 12:32 -4,9 C 74 % 1038,5 hPa 0,0 l/m 3,2 km/h (1 Bft) O 90 -8,8 C -4,9 C
11.02.2012 12:37 -4,7 C 74 % 1038,5 hPa 0,0 l/m 0,0 km/h (0 Bft) O 90 -8,6 C -4,7 C
11.02.2012 12:42 -4,6 C 74 % 1038,4 hPa 0,0 l/m 2,5 km/h (1 Bft) O 90 -8,5 C -4,6 C
11.02.2012 12:47 -4,5 C 73 % 1038,4 hPa 0,0 l/m 3,6 km/h (1 Bft) O-NO 67 -8,6 C -4,5 C
11.02.2012 12:52 -4,4 C 73 % 1038,4 hPa 0,0 l/m 3,2 km/h (1 Bft) O 90 -8,5 C -4,4 C
11.02.2012 12:57 -4,4 C 73 % 1038,3 hPa 0,0 l/m 3,2 km/h (1 Bft) O-SO 112 -8,5 C -4,4 C
11.02.2012 13:02 -4,2 C 72 % 1038,3 hPa 0,0 l/m 0,0 km/h (0 Bft) O-SO 112 -8,5 C -4,2 C
11.02.2012 13:07 -4,2 C 72 % 1038,2 hPa 0,0 l/m 0,0 km/h (0 Bft) O-SO 112 -8,5 C -4,2 C
11.02.2012 13:12 -4,1 C 72 % 1038,1 hPa 0,0 l/m 3,2 km/h (1 Bft) O 90 -8,4 C -4,1 C
11.02.2012 13:17 -4,1 C 72 % 1038,2 hPa 0,0 l/m 1,4 km/h (1 Bft) O-SO 112 -8,4 C -4,1 C
11.02.2012 13:22 -3,9 C 72 % 1038,2 hPa 0,0 l/m 4,7 km/h (1 Bft) O 90 -8,2 C -5,8 C
11.02.2012 13:27 -3,9 C 71 % 1038,2 hPa 0,0 l/m 2,9 km/h (1 Bft) S-SO 157 -8,4 C -3,9 C
11.02.2012 13:32 -3,7 C 71 % 1038,1 hPa 0,0 l/m 2,9 km/h (1 Bft) SO 135 -8,2 C -3,7 C
11.02.2012 13:37 -3,4 C 71 % 1038,0 hPa 0,0 l/m 4,0 km/h (1 Bft) S-SO 157 -7,9 C -3,4 C
11.02.2012 13:42 -2,9 C 71 % 1038,0 hPa 0,0 l/m 4,7 km/h (1 Bft) S-SO 157 -7,4 C -4,7 C
11.02.2012 13:47 -2,7 C 71 % 1037,8 hPa 0,0 l/m 3,2 km/h (1 Bft) SO 135 -7,2 C -2,7 C
11.02.2012 13:52 -2,5 C 69 % 1038,0 hPa 0,0 l/m 2,5 km/h (1 Bft) S-SO 157 -7,4 C -2,5 C
11.02.2012 13:57 -2,4 C 69 % 1037,9 hPa 0,0 l/m 1,1 km/h (1 Bft) O-SO 112 -7,3 C -2,4 C
11.02.2012 14:02 -2,2 C 69 % 1037,7 hPa 0,0 l/m 5,0 km/h (1 Bft) SO 135 -7,1 C -4,1 C
11.02.2012 14:07 -2,2 C 68 % 1037,7 hPa 0,0 l/m 3,6 km/h (1 Bft) O-SO 112 -7,3 C -2,2 C
11.02.2012 14:12 -2,2 C 68 % 1037,7 hPa 0,0 l/m 2,5 km/h (1 Bft) SO 135 -7,3 C -2,2 C
11.02.2012 14:17 -2,1 C 68 % 1037,7 hPa 0,0 l/m 0,0 km/h (0 Bft) SO 135 -7,2 C -2,1 C
11.02.2012 14:22 -2,1 C 68 % 1037,7 hPa 0,0 l/m 6,5 km/h (2 Bft) S-SO 157 -7,2 C -4,6 C
11.02.2012 14:27 -2,1 C 67 % 1037,6 hPa 0,0 l/m 4,7 km/h (1 Bft) SO 135 -7,4 C -3,8 C
11.02.2012 14:32 -2,1 C 67 % 1037,7 hPa 0,0 l/m 0,0 km/h (0 Bft) SO 135 -7,4 C -2,1 C
11.02.2012 14:37 -2,2 C 65 % 1037,6 hPa 0,0 l/m 0,0 km/h (0 Bft) O-SO 112 -7,9 C -2,2 C
11.02.2012 14:42 -2,4 C 66 % 1037,5 hPa 0,0 l/m 0,0 km/h (0 Bft) SO 135 -7,9 C -2,4 C
11.02.2012 14:47 -2,4 C 66 % 1037,5 hPa 0,0 l/m 0,0 km/h (0 Bft) SO 135 -7,9 C -2,4 C
11.02.2012 14:52 -2,4 C 65 % 1037,5 hPa 0,0 l/m 2,5 km/h (1 Bft) O-SO 112 -8,1 C -2,4 C
11.02.2012 14:57 -2,6 C 65 % 1037,3 hPa 0,0 l/m 0,0 km/h (0 Bft) SO 135 -8,2 C -2,6 C
11.02.2012 15:02 -2,6 C 65 % 1037,3 hPa 0,0 l/m 3,2 km/h (1 Bft) O-SO 112 -8,2 C -2,6 C
11.02.2012 15:07 -2,7 C 65 % 1037,1 hPa 0,0 l/m 2,5 km/h (1 Bft) O-SO 112 -8,3 C -2,7 C
11.02.2012 15:12 -3,0 C 65 % 1037,2 hPa 0,0 l/m 1,4 km/h (1 Bft) O-SO 112 -8,6 C -3,0 C
11.02.2012 15:17 -3,1 C 65 % 1037,2 hPa 0,0 l/m 2,2 km/h (1 Bft) O-SO 112 -8,7 C -3,1 C
11.02.2012 15:22 -3,2 C 65 % 1037,2 hPa 0,0 l/m 2,5 km/h (1 Bft) O-SO 112 -8,8 C -3,2 C
11.02.2012 15:27 -2,9 C 66 % 1037,2 hPa 0,0 l/m 1,4 km/h (1 Bft) O-SO 112 -8,3 C -2,9 C
11.02.2012 15:32 -2,8 C 66 % 1037,3 hPa 0,0 l/m 4,0 km/h (1 Bft) O-SO 112 -8,2 C -2,8 C
11.02.2012 15:37 -2,8 C 66 % 1037,1 hPa 0,0 l/m 3,6 km/h (1 Bft) O-SO 112 -8,2 C -2,8 C
11.02.2012 15:42 -3,0 C 65 % 1037,2 hPa 0,0 l/m 0,0 km/h (0 Bft) O-SO 112 -8,6 C -3,0 C
11.02.2012 15:47 -3,1 C 65 % 1037,1 hPa 0,0 l/m 1,8 km/h (1 Bft) O-SO 112 -8,7 C -3,1 C
11.02.2012 15:52 -3,2 C 65 % 1037,2 hPa 0,0 l/m 3,6 km/h (1 Bft) O-SO 112 -8,8 C -3,2 C
11.02.2012 15:57 -3,4 C 66 % 1037,1 hPa 0,0 l/m 0,0 km/h (0 Bft) O-SO 112 -8,8 C -3,4 C
11.02.2012 16:02 -3,5 C 66 % 1037,0 hPa 0,0 l/m 0,0 km/h (0 Bft) O-SO 112 -8,9 C -3,5 C
11.02.2012 16:07 -3,2 C 66 % 1036,9 hPa 0,0 l/m 0,0 km/h (0 Bft) O-SO 112 -8,6 C -3,2 C
11.02.2012 16:12 -3,0 C 66 % 1036,9 hPa 0,0 l/m 0,0 km/h (0 Bft) O-SO 112 -8,4 C -3,0 C
11.02.2012 16:17 -2,9 C 66 % 1036,9 hPa 0,0 l/m 0,0 km/h (0 Bft) O-SO 112 -8,3 C -2,9 C
11.02.2012 16:22 -3,0 C 66 % 1037,1 hPa 0,0 l/m 0,0 km/h (0 Bft) O-SO 112 -8,4 C -3,0 C
11.02.2012 16:27 -3,0 C 66 % 1037,0 hPa 0,0 l/m 0,0 km/h (0 Bft) O-SO 112 -8,4 C -3,0 C
11.02.2012 16:32 -3,1 C 66 % 1036,9 hPa 0,0 l/m 0,0 km/h (0 Bft) O-SO 112 -8,5 C -3,1 C
11.02.2012 16:37 -3,2 C 66 % 1037,0 hPa 0,0 l/m 0,0 km/h (0 Bft) O-SO 112 -8,6 C -3,2 C
11.02.2012 16:42 -3,5 C 66 % 1036,9 hPa 0,0 l/m 0,0 km/h (0 Bft) O-SO 112 -8,9 C -3,5 C
11.02.2012 16:47 -3,6 C 66 % 1036,8 hPa 0,0 l/m 0,0 km/h (0 Bft) O-SO 112 -9,0 C -3,6 C
11.02.2012 16:52 -3,9 C 66 % 1036,6 hPa 0,0 l/m 0,0 km/h (0 Bft) O-SO 112 -9,3 C -3,9 C
11.02.2012 16:57 -3,9 C 66 % 1036,7 hPa 0,0 l/m 0,0 km/h (0 Bft) O-SO 112 -9,3 C -3,9 C
11.02.2012 17:02 -4,1 C 67 % 1036,7 hPa 0,0 l/m 0,0 km/h (0 Bft) O-SO 112 -9,3 C -4,1 C
11.02.2012 17:07 -4,2 C 67 % 1036,8 hPa 0,0 l/m 0,0 km/h (0 Bft) O-SO 112 -9,4 C -4,2 C
11.02.2012 17:12 -4,4 C 67 % 1036,9 hPa 0,0 l/m 0,0 km/h (0 Bft) O-SO 112 -9,6 C -4,4 C
11.02.2012 17:17 -4,5 C 67 % 1036,7 hPa 0,0 l/m 0,0 km/h (0 Bft) O-SO 112 -9,7 C -4,5 C
11.02.2012 17:22 -4,7 C 67 % 1036,7 hPa 0,0 l/m 0,0 km/h (0 Bft) O-SO 112 -9,9 C -4,7 C
11.02.2012 17:27 -4,9 C 68 % 1036,8 hPa 0,0 l/m 0,0 km/h (0 Bft) O-SO 112 -9,9 C -4,9 C
11.02.2012 17:32 -5,1 C 68 % 1036,7 hPa 0,0 l/m 0,0 km/h (0 Bft) O-SO 112 -10,1 C -5,1 C
11.02.2012 17:37 -5,1 C 69 % 1036,7 hPa 0,0 l/m 0,0 km/h (0 Bft) O-SO 112 -9,9 C -5,1 C
11.02.2012 17:42 -5,3 C 68 % 1036,8 hPa 0,0 l/m 0,0 km/h (0 Bft) O-SO 112 -10,3 C -5,3 C
11.02.2012 17:47 -5,6 C 68 % 1036,7 hPa 0,0 l/m 0,0 km/h (0 Bft) O-SO 112 -10,5 C -5,6 C
11.02.2012 17:52 -5,9 C 69 % 1036,7 hPa 0,0 l/m 0,0 km/h (0 Bft) O-SO 112 -10,6 C -5,9 C
11.02.2012 17:57 -6,2 C 70 % 1036,5 hPa 0,0 l/m 0,0 km/h (0 Bft) O-SO 112 -10,8 C -6,2 C
11.02.2012 18:02 -6,4 C 70 % 1036,6 hPa 0,0 l/m 0,0 km/h (0 Bft) O-SO 112 -10,9 C -6,4 C
11.02.2012 18:07 -6,5 C 70 % 1036,8 hPa 0,0 l/m 0,0 km/h (0 Bft) O-SO 112 -11,0 C -6,5 C
11.02.2012 18:12 -6,6 C 71 % 1036,7 hPa 0,0 l/m 0,0 km/h (0 Bft) O-SO 112 -11,0 C -6,6 C
11.02.2012 18:17 -6,7 C 71 % 1036,6 hPa 0,0 l/m 0,0 km/h (0 Bft) O-SO 112 -11,1 C -6,7 C
11.02.2012 18:22 -6,6 C 71 % 1036,8 hPa 0,0 l/m 0,0 km/h (0 Bft) O-SO 112 -11,0 C -6,6 C
11.02.2012 18:27 -6,6 C 71 % 1036,9 hPa 0,0 l/m 0,0 km/h (0 Bft) O-SO 112 -11,0 C -6,6 C
11.02.2012 18:32 -6,7 C 71 % 1036,7 hPa 0,0 l/m 0,0 km/h (0 Bft) O-SO 112 -11,1 C -6,7 C
11.02.2012 18:37 -6,9 C 71 % 1036,6 hPa 0,0 l/m 0,0 km/h (0 Bft) O-SO 112 -11,2 C -6,9 C
11.02.2012 18:42 -7,1 C 72 % 1036,7 hPa 0,0 l/m 0,0 km/h (0 Bft) O-SO 112 -11,3 C -7,1 C
11.02.2012 18:47 -7,1 C 72 % 1036,7 hPa 0,0 l/m 0,0 km/h (0 Bft) O-SO 112 -11,3 C -7,1 C
11.02.2012 18:52 -7,1 C 72 % 1036,6 hPa 0,0 l/m 0,0 km/h (0 Bft) O-SO 112 -11,3 C -7,1 C
11.02.2012 18:57 -7,2 C 72 % 1036,7 hPa 0,0 l/m 0,0 km/h (0 Bft) O-SO 112 -11,4 C -7,2 C
11.02.2012 19:02 -7,3 C 72 % 1036,7 hPa 0,0 l/m 0,0 km/h (0 Bft) O-SO 112 -11,5 C -7,3 C
11.02.2012 19:07 -7,3 C 72 % 1036,7 hPa 0,0 l/m 0,0 km/h (0 Bft) O-SO 112 -11,5 C -7,3 C
11.02.2012 19:12 -7,4 C 72 % 1036,7 hPa 0,0 l/m 0,0 km/h (0 Bft) O-SO 112 -11,6 C -7,4 C
11.02.2012 19:17 -7,6 C 72 % 1036,8 hPa 0,0 l/m 0,0 km/h (0 Bft) NO 45 -11,8 C -7,6 C
11.02.2012 19:22 -7,6 C 73 % 1036,7 hPa 0,0 l/m 0,0 km/h (0 Bft) O-SO 112 -11,6 C -7,6 C
11.02.2012 19:27 -7,7 C 73 % 1036,6 hPa 0,0 l/m 0,0 km/h (0 Bft) O-SO 112 -11,7 C -7,7 C
11.02.2012 19:32 -7,8 C 73 % 1036,7 hPa 0,0 l/m 0,0 km/h (0 Bft) O-SO 112 -11,8 C -7,8 C
11.02.2012 19:37 -7,9 C 73 % 1036,8 hPa 0,0 l/m 0,0 km/h (0 Bft) O-SO 112 -11,9 C -7,9 C
11.02.2012 19:42 -8,1 C 73 % 1036,7 hPa 0,0 l/m 0,0 km/h (0 Bft) O-SO 112 -12,1 C -8,1 C
11.02.2012 19:47 -8,1 C 73 % 1036,6 hPa 0,0 l/m 0,0 km/h (0 Bft) O-SO 112 -12,1 C -8,1 C
11.02.2012 19:52 -8,1 C 73 % 1036,6 hPa 0,0 l/m 0,0 km/h (0 Bft) O-SO 112 -12,1 C -8,1 C
11.02.2012 19:57 -8,2 C 73 % 1036,6 hPa 0,0 l/m 0,0 km/h (0 Bft) O-SO 112 -12,2 C -8,2 C
11.02.2012 20:02 -8,4 C 74 % 1036,6 hPa 0,0 l/m 0,0 km/h (0 Bft) O-SO 112 -12,2 C -8,4 C
11.02.2012 20:07 -8,4 C 74 % 1036,6 hPa 0,0 l/m 0,0 km/h (0 Bft) O-SO 112 -12,2 C -8,4 C
11.02.2012 20:12 -8,4 C 74 % 1036,6 hPa 0,0 l/m 2,2 km/h (1 Bft) O-SO 112 -12,2 C -8,4 C
11.02.2012 20:17 -8,5 C 74 % 1036,6 hPa 0,0 l/m 2,2 km/h (1 Bft) O-SO 112 -12,3 C -8,5 C
11.02.2012 20:22 -8,6 C 75 % 1036,5 hPa 0,0 l/m 2,2 km/h (1 Bft) O-SO 112 -12,2 C -8,6 C
11.02.2012 20:27 -8,7 C 75 % 1036,5 hPa 0,0 l/m 0,0 km/h (0 Bft) O-SO 112 -12,3 C -8,7 C
11.02.2012 20:32 -8,8 C 75 % 1036,4 hPa 0,0 l/m 0,0 km/h (0 Bft) O-SO 112 -12,4 C -8,8 C
11.02.2012 20:37 -8,8 C 76 % 1036,5 hPa 0,0 l/m 0,0 km/h (0 Bft) O-SO 112 -12,2 C -8,8 C
11.02.2012 20:42 -8,9 C 76 % 1036,5 hPa 0,0 l/m 0,0 km/h (0 Bft) O-SO 112 -12,3 C -8,9 C
11.02.2012 20:47 -8,9 C 76 % 1036,5 hPa 0,0 l/m 0,0 km/h (0 Bft) O-SO 112 -12,3 C -8,9 C
11.02.2012 20:52 -8,9 C 76 % 1036,5 hPa 0,0 l/m 0,0 km/h (0 Bft) O-SO 112 -12,3 C -8,9 C
11.02.2012 20:57 -9,1 C 76 % 1036,5 hPa 0,0 l/m 0,0 km/h (0 Bft) O-SO 112 -12,5 C -9,1 C
11.02.2012 21:02 -9,2 C 76 % 1036,5 hPa 0,0 l/m 0,0 km/h (0 Bft) O-SO 112 -12,6 C -9,2 C
11.02.2012 21:07 -9,4 C 76 % 1036,5 hPa 0,0 l/m 0,0 km/h (0 Bft) O-SO 112 -12,8 C -9,4 C
11.02.2012 21:12 -9,6 C 76 % 1036,5 hPa 0,0 l/m 0,0 km/h (0 Bft) O-SO 112 -13,0 C -9,6 C
11.02.2012 21:17 -9,8 C 76 % 1036,5 hPa 0,0 l/m 0,0 km/h (0 Bft) O-SO 112 -13,2 C -9,8 C
11.02.2012 21:22 -9,8 C 76 % 1036,6 hPa 0,0 l/m 0,0 km/h (0 Bft) O-SO 112 -13,2 C -9,8 C
11.02.2012 21:27 -9,7 C 77 % 1036,5 hPa 0,0 l/m 0,0 km/h (0 Bft) O-SO 112 -13,0 C -9,7 C
11.02.2012 21:32 -9,7 C 77 % 1036,5 hPa 0,0 l/m 0,0 km/h (0 Bft) O-SO 112 -13,0 C -9,7 C
11.02.2012 21:37 -9,6 C 77 % 1036,6 hPa 0,0 l/m 0,0 km/h (0 Bft) O-SO 112 -12,9 C -9,6 C
11.02.2012 21:42 -9,6 C 77 % 1036,6 hPa 0,0 l/m 0,0 km/h (0 Bft) O-SO 112 -12,9 C -9,6 C
11.02.2012 21:47 -9,5 C 77 % 1036,4 hPa 0,0 l/m 0,0 km/h (0 Bft) O-SO 112 -12,8 C -9,5 C
11.02.2012 21:52 -9,4 C 76 % 1036,2 hPa 0,0 l/m 0,0 km/h (0 Bft) O-SO 112 -12,8 C -9,4 C
11.02.2012 21:57 -9,5 C 76 % 1036,2 hPa 0,0 l/m 0,0 km/h (0 Bft) O-SO 112 -12,9 C -9,5 C
11.02.2012 22:02 -9,6 C 76 % 1036,3 hPa 0,0 l/m 0,0 km/h (0 Bft) O-SO 112 -13,0 C -9,6 C
11.02.2012 22:07 -9,6 C 76 % 1036,3 hPa 0,0 l/m 0,0 km/h (0 Bft) O-SO 112 -13,0 C -9,6 C
11.02.2012 22:12 -9,9 C 77 % 1036,4 hPa 0,0 l/m 0,0 km/h (0 Bft) O-SO 112 -13,1 C -9,9 C
11.02.2012 22:17 -10,1 C 77 % 1036,3 hPa 0,0 l/m 1,1 km/h (1 Bft) O-SO 112 -13,3 C -10,1 C
11.02.2012 22:22 -10,2 C 77 % 1036,3 hPa 0,0 l/m 0,0 km/h (0 Bft) O-SO 112 -13,4 C -10,2 C
11.02.2012 22:27 -10,1 C 78 % 1036,2 hPa 0,0 l/m 0,0 km/h (0 Bft) O-SO 112 -13,2 C -10,1 C
11.02.2012 22:32 -10,2 C 77 % 1036,2 hPa 0,0 l/m 0,0 km/h (0 Bft) O-SO 112 -13,4 C -10,2 C
11.02.2012 22:37 -10,5 C 77 % 1036,3 hPa 0,0 l/m 0,0 km/h (0 Bft) O-SO 112 -13,7 C -10,5 C
11.02.2012 22:42 -10,9 C 77 % 1036,3 hPa 0,0 l/m 0,0 km/h (0 Bft) O-SO 112 -14,1 C -10,9 C
11.02.2012 22:47 -11,2 C 77 % 1036,3 hPa 0,0 l/m 0,0 km/h (0 Bft) O-SO 112 -14,4 C -11,2 C
11.02.2012 22:52 -11,2 C 78 % 1036,4 hPa 0,0 l/m 0,0 km/h (0 Bft) O-SO 112 -14,3 C -11,2 C
11.02.2012 22:57 -11,1 C 79 % 1036,4 hPa 0,0 l/m 0,0 km/h (0 Bft) O-SO 112 -14,0 C -11,1 C
11.02.2012 23:02 -11,1 C 79 % 1036,3 hPa 0,0 l/m 0,0 km/h (0 Bft) O-SO 112 -14,0 C -11,1 C
11.02.2012 23:07 -10,9 C 79 % 1036,2 hPa 0,0 l/m 0,0 km/h (0 Bft) O-SO 112 -13,8 C -10,9 C
11.02.2012 23:12 -10,7 C 79 % 1036,2 hPa 0,0 l/m 0,0 km/h (0 Bft) O-SO 112 -13,6 C -10,7 C
11.02.2012 23:17 -10,6 C 79 % 1036,1 hPa 0,0 l/m 0,0 km/h (0 Bft) O-SO 112 -13,5 C -10,6 C
11.02.2012 23:22 -10,5 C 79 % 1036,1 hPa 0,0 l/m 0,0 km/h (0 Bft) O-SO 112 -13,4 C -10,5 C
11.02.2012 23:27 -10,4 C 79 % 1036,2 hPa 0,0 l/m 0,0 km/h (0 Bft) O-SO 112 -13,3 C -10,4 C
11.02.2012 23:32 -10,4 C 79 % 1036,1 hPa 0,0 l/m 0,0 km/h (0 Bft) O-SO 112 -13,3 C -10,4 C
11.02.2012 23:37 -10,6 C 79 % 1036,1 hPa 0,0 l/m 0,0 km/h (0 Bft) O-SO 112 -13,5 C -10,6 C
11.02.2012 23:42 -10,7 C 78 % 1036,1 hPa 0,0 l/m 0,0 km/h (0 Bft) O-SO 112 -13,8 C -10,7 C
11.02.2012 23:47 -10,9 C 78 % 1036,1 hPa 0,0 l/m 0,0 km/h (0 Bft) O-SO 112 -14,0 C -10,9 C
11.02.2012 23:52 -11,2 C 77 % 1036,0 hPa 0,0 l/m 0,0 km/h (0 Bft) O-SO 112 -14,4 C -11,2 C
11.02.2012 23:57 -11,2 C 77 % 1036,1 hPa 0,0 l/m 0,0 km/h (0 Bft) O-SO 112 -14,4 C -11,2 C
_ Min-Zeit 22:47 14:37 23:52 - 00:02 - - 22:47 09:12
Minimum _ -11,2 C 65 % 1036,0 hPa - 0,0 km/h (0 Bft) - - -14,4 C -12,1 C
_ Max-Zeit 14:17 01:57 00:17 09:42 09:12 - - 14:02 14:17
Maximum _ -2,1 C 83 % 1040,7 hPa 0,5 l/m 12,6 km/h
O (3 Bft)
- - -7,1 C -2,1 C
Durchschnitt _ -6,2 C 76 % 1038,0 hPa #0,5 l/m 1,3 km/h (1 Bft) O-SO - -9,7 C -6,5 C
(c) by David Heller